sensor_id;sensor_type;location;lat;lon;timestamp;temperature;humidity
54202;DHT22;40108;53.152;5.844;2023-04-01T00:01:46;9.70;98.00
54202;DHT22;40108;53.152;5.844;2023-04-01T00:04:12;9.70;98.00
54202;DHT22;40108;53.152;5.844;2023-04-01T00:06:38;9.70;98.00
54202;DHT22;40108;53.152;5.844;2023-04-01T00:09:03;9.70;98.00
54202;DHT22;40108;53.152;5.844;2023-04-01T00:11:29;9.70;98.00
54202;DHT22;40108;53.152;5.844;2023-04-01T00:13:55;9.70;98.00
54202;DHT22;40108;53.152;5.844;2023-04-01T00:16:21;9.70;97.90
54202;DHT22;40108;53.152;5.844;2023-04-01T00:18:47;9.60;97.90
54202;DHT22;40108;53.152;5.844;2023-04-01T00:21:13;9.60;97.90
54202;DHT22;40108;53.152;5.844;2023-04-01T00:23:39;9.60;97.90
54202;DHT22;40108;53.152;5.844;2023-04-01T00:26:04;9.60;98.00
54202;DHT22;40108;53.152;5.844;2023-04-01T00:28:30;9.60;98.00
54202;DHT22;40108;53.152;5.844;2023-04-01T00:30:56;9.60;98.00
54202;DHT22;40108;53.152;5.844;2023-04-01T00:33:22;9.60;98.00
54202;DHT22;40108;53.152;5.844;2023-04-01T00:35:48;9.60;98.00
54202;DHT22;40108;53.152;5.844;2023-04-01T00:38:14;9.60;98.10
54202;DHT22;40108;53.152;5.844;2023-04-01T00:40:43;9.60;98.10
54202;DHT22;40108;53.152;5.844;2023-04-01T00:43:18;9.60;98.10
54202;DHT22;40108;53.152;5.844;2023-04-01T00:45:45;9.60;98.10
54202;DHT22;40108;53.152;5.844;2023-04-01T00:48:23;9.60;98.10
54202;DHT22;40108;53.152;5.844;2023-04-01T00:50:58;9.60;98.10
54202;DHT22;40108;53.152;5.844;2023-04-01T00:53:25;9.60;98.10
54202;DHT22;40108;53.152;5.844;2023-04-01T00:56:02;9.60;98.10
54202;DHT22;40108;53.152;5.844;2023-04-01T00:58:32;9.60;98.20
54202;DHT22;40108;53.152;5.844;2023-04-01T01:00:59;9.60;98.20
54202;DHT22;40108;53.152;5.844;2023-04-01T01:03:26;9.60;98.20
54202;DHT22;40108;53.152;5.844;2023-04-01T01:11:10;9.60;98.20
54202;DHT22;40108;53.152;5.844;2023-04-01T01:13:49;9.50;98.20
54202;DHT22;40108;53.152;5.844;2023-04-01T01:16:42;9.50;98.20
54202;DHT22;40108;53.152;5.844;2023-04-01T01:22:32;9.50;98.20
54202;DHT22;40108;53.152;5.844;2023-04-01T01:27:58;9.60;98.20
54202;DHT22;40108;53.152;5.844;2023-04-01T01:30:37;9.60;98.20
54202;DHT22;40108;53.152;5.844;2023-04-01T01:35:49;9.60;98.20
54202;DHT22;40108;53.152;5.844;2023-04-01T01:38:18;9.60;98.20
54202;DHT22;40108;53.152;5.844;2023-04-01T01:40:49;9.60;98.20
54202;DHT22;40108;53.152;5.844;2023-04-01T01:43:20;9.60;98.20
54202;DHT22;40108;53.152;5.844;2023-04-01T01:45:49;9.60;98.20
54202;DHT22;40108;53.152;5.844;2023-04-01T01:48:16;9.60;98.20
54202;DHT22;40108;53.152;5.844;2023-04-01T01:50:44;9.60;98.20
54202;DHT22;40108;53.152;5.844;2023-04-01T01:53:12;9.60;98.20
54202;DHT22;40108;53.152;5.844;2023-04-01T01:55:40;9.60;98.20
54202;DHT22;40108;53.152;5.844;2023-04-01T01:58:27;9.60;98.20
54202;DHT22;40108;53.152;5.844;2023-04-01T02:00:57;9.60;98.20
54202;DHT22;40108;53.152;5.844;2023-04-01T02:03:26;9.60;98.10
54202;DHT22;40108;53.152;5.844;2023-04-01T02:05:55;9.60;98.20
54202;DHT22;40108;53.152;5.844;2023-04-01T02:08:30;9.70;98.20
54202;DHT22;40108;53.152;5.844;2023-04-01T02:11:10;9.70;98.10
54202;DHT22;40108;53.152;5.844;2023-04-01T02:16:36;9.70;98.10
54202;DHT22;40108;53.152;5.844;2023-04-01T02:19:04;9.70;98.10
54202;DHT22;40108;53.152;5.844;2023-04-01T02:21:35;9.70;98.10
54202;DHT22;40108;53.152;5.844;2023-04-01T02:24:06;9.70;98.10
54202;DHT22;40108;53.152;5.844;2023-04-01T02:26:32;9.70;98.10
54202;DHT22;40108;53.152;5.844;2023-04-01T02:29:00;9.70;98.10
54202;DHT22;40108;53.152;5.844;2023-04-01T02:31:26;9.70;98.10
54202;DHT22;40108;53.152;5.844;2023-04-01T02:33:54;9.70;98.10
54202;DHT22;40108;53.152;5.844;2023-04-01T02:36:20;9.70;98.10
54202;DHT22;40108;53.152;5.844;2023-04-01T02:38:46;9.70;98.10
54202;DHT22;40108;53.152;5.844;2023-04-01T02:41:13;9.70;98.10
54202;DHT22;40108;53.152;5.844;2023-04-01T02:43:39;9.70;98.10
54202;DHT22;40108;53.152;5.844;2023-04-01T02:46:05;9.70;98.10
54202;DHT22;40108;53.152;5.844;2023-04-01T02:48:30;9.70;98.10
54202;DHT22;40108;53.152;5.844;2023-04-01T02:50:56;9.70;98.10
54202;DHT22;40108;53.152;5.844;2023-04-01T02:53:22;9.70;98.10
54202;DHT22;40108;53.152;5.844;2023-04-01T02:55:48;9.70;98.10
54202;DHT22;40108;53.152;5.844;2023-04-01T02:58:16;9.70;98.10
54202;DHT22;40108;53.152;5.844;2023-04-01T03:00:42;9.70;98.00
54202;DHT22;40108;53.152;5.844;2023-04-01T03:03:08;9.70;98.00
54202;DHT22;40108;53.152;5.844;2023-04-01T03:05:34;9.70;98.00
54202;DHT22;40108;53.152;5.844;2023-04-01T03:08:00;9.70;98.00
54202;DHT22;40108;53.152;5.844;2023-04-01T03:10:25;9.70;98.00
54202;DHT22;40108;53.152;5.844;2023-04-01T03:12:51;9.70;98.00
54202;DHT22;40108;53.152;5.844;2023-04-01T03:15:17;9.70;98.00
54202;DHT22;40108;53.152;5.844;2023-04-01T03:17:43;9.70;98.00
54202;DHT22;40108;53.152;5.844;2023-04-01T03:20:10;9.70;98.00
54202;DHT22;40108;53.152;5.844;2023-04-01T03:22:36;9.70;98.00
54202;DHT22;40108;53.152;5.844;2023-04-01T03:25:03;9.70;98.00
54202;DHT22;40108;53.152;5.844;2023-04-01T03:27:29;9.70;98.00
54202;DHT22;40108;53.152;5.844;2023-04-01T03:29:55;9.70;97.90
54202;DHT22;40108;53.152;5.844;2023-04-01T03:32:20;9.70;98.00
54202;DHT22;40108;53.152;5.844;2023-04-01T03:34:46;9.70;98.00
54202;DHT22;40108;53.152;5.844;2023-04-01T03:37:12;9.70;98.00
54202;DHT22;40108;53.152;5.844;2023-04-01T03:39:37;9.70;98.00
54202;DHT22;40108;53.152;5.844;2023-04-01T03:42:03;9.70;98.00
54202;DHT22;40108;53.152;5.844;2023-04-01T03:44:33;9.70;97.90
54202;DHT22;40108;53.152;5.844;2023-04-01T03:46:59;9.70;97.90
54202;DHT22;40108;53.152;5.844;2023-04-01T03:49:26;9.70;98.00
54202;DHT22;40108;53.152;5.844;2023-04-01T03:51:51;9.70;98.00
54202;DHT22;40108;53.152;5.844;2023-04-01T03:54:17;9.70;98.00
54202;DHT22;40108;53.152;5.844;2023-04-01T03:56:45;9.70;98.00
54202;DHT22;40108;53.152;5.844;2023-04-01T03:59:11;9.70;97.90
54202;DHT22;40108;53.152;5.844;2023-04-01T04:01:38;9.70;98.00
54202;DHT22;40108;53.152;5.844;2023-04-01T04:04:03;9.70;97.90
54202;DHT22;40108;53.152;5.844;2023-04-01T04:06:30;9.70;97.90
54202;DHT22;40108;53.152;5.844;2023-04-01T04:08:56;9.70;97.90
54202;DHT22;40108;53.152;5.844;2023-04-01T04:11:23;9.70;98.00
54202;DHT22;40108;53.152;5.844;2023-04-01T04:13:49;9.70;98.00
54202;DHT22;40108;53.152;5.844;2023-04-01T04:16:16;9.70;97.90
54202;DHT22;40108;53.152;5.844;2023-04-01T04:18:41;9.60;98.00
54202;DHT22;40108;53.152;5.844;2023-04-01T04:21:10;9.70;98.00
54202;DHT22;40108;53.152;5.844;2023-04-01T04:23:36;9.70;98.00
54202;DHT22;40108;53.152;5.844;2023-04-01T04:26:07;9.70;98.00
54202;DHT22;40108;53.152;5.844;2023-04-01T04:28:34;9.70;98.00
54202;DHT22;40108;53.152;5.844;2023-04-01T04:31:00;9.70;98.00
54202;DHT22;40108;53.152;5.844;2023-04-01T04:33:26;9.70;98.00
54202;DHT22;40108;53.152;5.844;2023-04-01T04:35:55;9.70;98.00
54202;DHT22;40108;53.152;5.844;2023-04-01T04:38:21;9.70;98.00
54202;DHT22;40108;53.152;5.844;2023-04-01T04:40:46;9.70;98.00
54202;DHT22;40108;53.152;5.844;2023-04-01T04:43:13;9.70;98.00
54202;DHT22;40108;53.152;5.844;2023-04-01T04:45:40;9.60;98.00
54202;DHT22;40108;53.152;5.844;2023-04-01T04:48:08;9.70;98.00
54202;DHT22;40108;53.152;5.844;2023-04-01T04:50:34;9.70;98.00
54202;DHT22;40108;53.152;5.844;2023-04-01T04:53:01;9.70;98.00
54202;DHT22;40108;53.152;5.844;2023-04-01T04:55:26;9.70;98.00
54202;DHT22;40108;53.152;5.844;2023-04-01T04:57:52;9.70;98.00
54202;DHT22;40108;53.152;5.844;2023-04-01T05:00:18;9.60;98.00
54202;DHT22;40108;53.152;5.844;2023-04-01T05:02:44;9.70;98.00
54202;DHT22;40108;53.152;5.844;2023-04-01T05:05:09;9.70;98.00
54202;DHT22;40108;53.152;5.844;2023-04-01T05:07:36;9.60;98.00
54202;DHT22;40108;53.152;5.844;2023-04-01T05:10:02;9.70;98.00
54202;DHT22;40108;53.152;5.844;2023-04-01T05:12:28;9.70;98.00
54202;DHT22;40108;53.152;5.844;2023-04-01T05:14:53;9.70;98.00
54202;DHT22;40108;53.152;5.844;2023-04-01T05:17:19;9.70;98.00
54202;DHT22;40108;53.152;5.844;2023-04-01T05:19:45;9.70;98.00
54202;DHT22;40108;53.152;5.844;2023-04-01T05:22:11;9.70;98.00
54202;DHT22;40108;53.152;5.844;2023-04-01T05:24:36;9.70;98.00
54202;DHT22;40108;53.152;5.844;2023-04-01T05:27:02;9.70;98.00
54202;DHT22;40108;53.152;5.844;2023-04-01T05:29:28;9.70;98.00
54202;DHT22;40108;53.152;5.844;2023-04-01T05:31:53;9.70;98.00
54202;DHT22;40108;53.152;5.844;2023-04-01T05:34:19;9.70;98.00
54202;DHT22;40108;53.152;5.844;2023-04-01T05:36:45;9.70;98.00
54202;DHT22;40108;53.152;5.844;2023-04-01T05:39:10;9.70;98.00
54202;DHT22;40108;53.152;5.844;2023-04-01T05:41:37;9.70;98.00
54202;DHT22;40108;53.152;5.844;2023-04-01T05:44:03;9.70;98.00
54202;DHT22;40108;53.152;5.844;2023-04-01T05:46:30;9.70;98.00
54202;DHT22;40108;53.152;5.844;2023-04-01T05:48:56;9.70;98.00
54202;DHT22;40108;53.152;5.844;2023-04-01T05:51:22;9.70;98.00
54202;DHT22;40108;53.152;5.844;2023-04-01T05:53:48;9.70;98.00
54202;DHT22;40108;53.152;5.844;2023-04-01T05:56:14;9.70;98.00
54202;DHT22;40108;53.152;5.844;2023-04-01T05:58:40;9.70;98.00
54202;DHT22;40108;53.152;5.844;2023-04-01T06:01:09;9.70;97.90
54202;DHT22;40108;53.152;5.844;2023-04-01T06:03:35;9.70;97.90
54202;DHT22;40108;53.152;5.844;2023-04-01T06:06:01;9.70;97.90
54202;DHT22;40108;53.152;5.844;2023-04-01T06:08:27;9.70;97.90
54202;DHT22;40108;53.152;5.844;2023-04-01T06:16:42;9.70;97.90
54202;DHT22;40108;53.152;5.844;2023-04-01T06:19:36;9.70;97.90
54202;DHT22;40108;53.152;5.844;2023-04-01T06:28:03;9.80;97.90
54202;DHT22;40108;53.152;5.844;2023-04-01T06:30:43;9.70;97.90
54202;DHT22;40108;53.152;5.844;2023-04-01T06:39:22;9.70;98.00
54202;DHT22;40108;53.152;5.844;2023-04-01T06:48:18;9.80;97.90
54202;DHT22;40108;53.152;5.844;2023-04-01T06:51:11;9.80;97.90
54202;DHT22;40108;53.152;5.844;2023-04-01T06:54:03;9.80;97.90
54202;DHT22;40108;53.152;5.844;2023-04-01T06:56:31;9.80;97.90
54202;DHT22;40108;53.152;5.844;2023-04-01T06:59:15;9.80;97.90
54202;DHT22;40108;53.152;5.844;2023-04-01T07:01:52;9.80;97.90
54202;DHT22;40108;53.152;5.844;2023-04-01T07:04:33;9.90;97.90
54202;DHT22;40108;53.152;5.844;2023-04-01T07:09:53;9.90;97.90
54202;DHT22;40108;53.152;5.844;2023-04-01T07:15:25;9.90;97.90
54202;DHT22;40108;53.152;5.844;2023-04-01T07:18:03;9.90;97.90
54202;DHT22;40108;53.152;5.844;2023-04-01T07:20:32;9.90;97.80
54202;DHT22;40108;53.152;5.844;2023-04-01T07:23:03;9.90;97.80
54202;DHT22;40108;53.152;5.844;2023-04-01T07:25:39;10.00;97.90
54202;DHT22;40108;53.152;5.844;2023-04-01T07:28:13;9.90;97.80
54202;DHT22;40108;53.152;5.844;2023-04-01T07:36:24;10.00;97.90
54202;DHT22;40108;53.152;5.844;2023-04-01T07:41:49;10.00;97.90
54202;DHT22;40108;53.152;5.844;2023-04-01T07:55:26;10.20;97.80
54202;DHT22;40108;53.152;5.844;2023-04-01T08:06:32;10.20;97.70
54202;DHT22;40108;53.152;5.844;2023-04-01T08:09:25;10.20;97.70
54202;DHT22;40108;53.152;5.844;2023-04-01T08:14:56;10.30;97.80
54202;DHT22;40108;53.152;5.844;2023-04-01T08:25:30;10.50;97.60
54202;DHT22;40108;53.152;5.844;2023-04-01T08:28:11;10.50;97.40
54202;DHT22;40108;53.152;5.844;2023-04-01T08:30:48;10.50;97.30
54202;DHT22;40108;53.152;5.844;2023-04-01T08:36:12;10.50;97.40
54202;DHT22;40108;53.152;5.844;2023-04-01T08:38:59;10.50;97.20
54202;DHT22;40108;53.152;5.844;2023-04-01T08:47:24;10.50;96.90
54202;DHT22;40108;53.152;5.844;2023-04-01T08:52:49;10.60;97.00
54202;DHT22;40108;53.152;5.844;2023-04-01T08:55:37;10.80;96.80
54202;DHT22;40108;53.152;5.844;2023-04-01T09:03:44;10.90;96.20
54202;DHT22;40108;53.152;5.844;2023-04-01T09:15:22;11.10;96.50
54202;DHT22;40108;53.152;5.844;2023-04-01T09:43:27;10.90;95.20
54202;DHT22;40108;53.152;5.844;2023-04-01T09:46:23;10.90;95.10
54202;DHT22;40108;53.152;5.844;2023-04-01T09:49:18;10.70;94.40
54202;DHT22;40108;53.152;5.844;2023-04-01T09:52:10;10.70;95.00
54202;DHT22;40108;53.152;5.844;2023-04-01T10:00:17;10.70;95.10
54202;DHT22;40108;53.152;5.844;2023-04-01T10:11:27;10.70;95.10
54202;DHT22;40108;53.152;5.844;2023-04-01T10:34:32;10.80;94.60
54202;DHT22;40108;53.152;5.844;2023-04-01T10:40:12;10.80;94.40
54202;DHT22;40108;53.152;5.844;2023-04-01T11:11:11;10.90;93.20
54202;DHT22;40108;53.152;5.844;2023-04-01T11:25:06;10.80;92.30
54202;DHT22;40108;53.152;5.844;2023-04-01T11:33:38;10.70;92.50
54202;DHT22;40108;53.152;5.844;2023-04-01T11:36:25;10.70;92.40
54202;DHT22;40108;53.152;5.844;2023-04-01T11:39:00;10.60;91.90
54202;DHT22;40108;53.152;5.844;2023-04-01T11:41:45;10.60;91.50
54202;DHT22;40108;53.152;5.844;2023-04-01T11:52:16;10.60;91.50
54202;DHT22;40108;53.152;5.844;2023-04-01T12:03:36;10.60;91.40
54202;DHT22;40108;53.152;5.844;2023-04-01T12:17:15;10.40;90.40
54202;DHT22;40108;53.152;5.844;2023-04-01T12:19:54;10.30;91.20
54202;DHT22;40108;53.152;5.844;2023-04-01T12:28:24;10.40;91.50
54202;DHT22;40108;53.152;5.844;2023-04-01T12:30:56;10.40;90.90
54202;DHT22;40108;53.152;5.844;2023-04-01T12:50:09;10.40;90.90
54202;DHT22;40108;53.152;5.844;2023-04-01T12:55:33;10.40;91.20
54202;DHT22;40108;53.152;5.844;2023-04-01T13:15:05;10.20;90.80
54202;DHT22;40108;53.152;5.844;2023-04-01T13:35:26;10.20;90.20
54202;DHT22;40108;53.152;5.844;2023-04-01T13:37:52;10.20;89.90
54202;DHT22;40108;53.152;5.844;2023-04-01T13:42:57;10.10;90.00
54202;DHT22;40108;53.152;5.844;2023-04-01T13:48:27;10.00;89.80
54202;DHT22;40108;53.152;5.844;2023-04-01T13:51:06;10.10;90.20
54202;DHT22;40108;53.152;5.844;2023-04-01T13:56:55;9.90;90.10
54202;DHT22;40108;53.152;5.844;2023-04-01T14:02:44;9.80;90.40
54202;DHT22;40108;53.152;5.844;2023-04-01T14:10:44;9.70;90.20
54202;DHT22;40108;53.152;5.844;2023-04-01T14:13:36;9.70;90.30
54202;DHT22;40108;53.152;5.844;2023-04-01T14:21:41;9.60;90.30
54202;DHT22;40108;53.152;5.844;2023-04-01T14:27:11;9.60;89.80
54202;DHT22;40108;53.152;5.844;2023-04-01T14:30:14;9.50;89.80
54202;DHT22;40108;53.152;5.844;2023-04-01T14:33:05;9.50;89.70
54202;DHT22;40108;53.152;5.844;2023-04-01T14:38:29;9.40;89.70
54202;DHT22;40108;53.152;5.844;2023-04-01T14:40:59;9.40;89.90
54202;DHT22;40108;53.152;5.844;2023-04-01T14:49:41;9.30;90.00
54202;DHT22;40108;53.152;5.844;2023-04-01T14:52:25;9.30;90.20
54202;DHT22;40108;53.152;5.844;2023-04-01T14:54:53;9.20;89.80
54202;DHT22;40108;53.152;5.844;2023-04-01T14:57:30;9.20;89.80
54202;DHT22;40108;53.152;5.844;2023-04-01T15:00:17;9.20;89.50
54202;DHT22;40108;53.152;5.844;2023-04-01T15:16:52;9.00;89.90
54202;DHT22;40108;53.152;5.844;2023-04-01T15:25:36;8.80;89.40
54202;DHT22;40108;53.152;5.844;2023-04-01T15:28:33;8.70;89.50
54202;DHT22;40108;53.152;5.844;2023-04-01T15:42:04;8.70;90.30
54202;DHT22;40108;53.152;5.844;2023-04-01T15:47:40;8.60;90.20
54202;DHT22;40108;53.152;5.844;2023-04-01T15:58:48;8.40;90.60
54202;DHT22;40108;53.152;5.844;2023-04-01T16:01:25;8.40;90.40
54202;DHT22;40108;53.152;5.844;2023-04-01T16:09:37;8.20;89.80
54202;DHT22;40108;53.152;5.844;2023-04-01T16:15:11;8.10;90.20
54202;DHT22;40108;53.152;5.844;2023-04-01T16:17:50;8.10;90.20
54202;DHT22;40108;53.152;5.844;2023-04-01T16:20:23;8.00;90.30
54202;DHT22;40108;53.152;5.844;2023-04-01T16:23:13;8.00;90.60
54202;DHT22;40108;53.152;5.844;2023-04-01T16:25:52;7.90;89.80
54202;DHT22;40108;53.152;5.844;2023-04-01T16:28:32;7.80;90.40
54202;DHT22;40108;53.152;5.844;2023-04-01T16:31:15;7.80;90.50
54202;DHT22;40108;53.152;5.844;2023-04-01T16:33:52;7.70;90.20
54202;DHT22;40108;53.152;5.844;2023-04-01T16:36:46;7.70;90.60
54202;DHT22;40108;53.152;5.844;2023-04-01T16:42:40;7.70;90.20
54202;DHT22;40108;53.152;5.844;2023-04-01T16:45:16;7.60;90.80
54202;DHT22;40108;53.152;5.844;2023-04-01T16:48:07;7.70;90.90
54202;DHT22;40108;53.152;5.844;2023-04-01T16:50:59;7.70;90.70
54202;DHT22;40108;53.152;5.844;2023-04-01T16:53:41;7.60;90.60
54202;DHT22;40108;53.152;5.844;2023-04-01T16:56:11;7.60;90.70
54202;DHT22;40108;53.152;5.844;2023-04-01T16:58:56;7.60;90.80
54202;DHT22;40108;53.152;5.844;2023-04-01T17:04:44;7.50;90.50
54202;DHT22;40108;53.152;5.844;2023-04-01T17:15:29;7.40;91.20
54202;DHT22;40108;53.152;5.844;2023-04-01T17:20:48;7.40;91.10
54202;DHT22;40108;53.152;5.844;2023-04-01T17:23:42;7.30;90.90
54202;DHT22;40108;53.152;5.844;2023-04-01T17:26:24;7.30;90.90
54202;DHT22;40108;53.152;5.844;2023-04-01T17:28:57;7.20;91.10
54202;DHT22;40108;53.152;5.844;2023-04-01T17:42:50;7.10;91.40
54202;DHT22;40108;53.152;5.844;2023-04-01T17:45:33;7.20;91.40
54202;DHT22;40108;53.152;5.844;2023-04-01T17:48:18;7.20;91.40
54202;DHT22;40108;53.152;5.844;2023-04-01T17:57:02;7.10;91.60
54202;DHT22;40108;53.152;5.844;2023-04-01T18:02:06;7.00;91.30
54202;DHT22;40108;53.152;5.844;2023-04-01T18:04:55;6.90;91.60
54202;DHT22;40108;53.152;5.844;2023-04-01T18:07:52;6.90;91.60
54202;DHT22;40108;53.152;5.844;2023-04-01T18:10:36;6.80;91.50
54202;DHT22;40108;53.152;5.844;2023-04-01T18:15:47;6.70;91.80
54202;DHT22;40108;53.152;5.844;2023-04-01T18:21:23;6.70;91.90
54202;DHT22;40108;53.152;5.844;2023-04-01T18:23:55;6.70;91.30
54202;DHT22;40108;53.152;5.844;2023-04-01T18:26:23;6.60;91.40
54202;DHT22;40108;53.152;5.844;2023-04-01T18:31:48;6.60;91.30
54202;DHT22;40108;53.152;5.844;2023-04-01T18:37:35;6.60;91.20
54202;DHT22;40108;53.152;5.844;2023-04-01T18:40:21;6.60;91.30
54202;DHT22;40108;53.152;5.844;2023-04-01T18:45:57;6.60;91.50
54202;DHT22;40108;53.152;5.844;2023-04-01T18:49:08;6.60;91.40
54202;DHT22;40108;53.152;5.844;2023-04-01T18:51:16;6.60;91.10
54202;DHT22;40108;53.152;5.844;2023-04-01T18:57:12;6.60;91.00
54202;DHT22;40108;53.152;5.844;2023-04-01T19:02:27;6.60;91.00
54202;DHT22;40108;53.152;5.844;2023-04-01T19:05:07;6.60;91.00
54202;DHT22;40108;53.152;5.844;2023-04-01T19:07:42;6.60;91.10
54202;DHT22;40108;53.152;5.844;2023-04-01T19:15:39;6.40;90.80
54202;DHT22;40108;53.152;5.844;2023-04-01T19:18:36;6.40;90.90
54202;DHT22;40108;53.152;5.844;2023-04-01T19:21:14;6.40;90.90
54202;DHT22;40108;53.152;5.844;2023-04-01T19:24:31;6.40;90.70
54202;DHT22;40108;53.152;5.844;2023-04-01T19:26:42;6.40;90.80
54202;DHT22;40108;53.152;5.844;2023-04-01T19:32:24;6.40;90.40
54202;DHT22;40108;53.152;5.844;2023-04-01T19:37:35;6.30;90.20
54202;DHT22;40108;53.152;5.844;2023-04-01T19:43:03;6.30;90.50
54202;DHT22;40108;53.152;5.844;2023-04-01T19:45:40;6.20;90.60
54202;DHT22;40108;53.152;5.844;2023-04-01T19:50:55;6.20;90.60
54202;DHT22;40108;53.152;5.844;2023-04-01T19:53:32;6.20;90.60
54202;DHT22;40108;53.152;5.844;2023-04-01T19:56:20;6.20;90.50
54202;DHT22;40108;53.152;5.844;2023-04-01T19:58:56;6.20;90.10
54202;DHT22;40108;53.152;5.844;2023-04-01T20:13:11;6.10;90.60
54202;DHT22;40108;53.152;5.844;2023-04-01T20:15:47;6.10;90.50
54202;DHT22;40108;53.152;5.844;2023-04-01T20:21:03;6.00;90.40
54202;DHT22;40108;53.152;5.844;2023-04-01T20:23:43;6.00;90.30
54202;DHT22;40108;53.152;5.844;2023-04-01T20:26:12;6.00;90.30
54202;DHT22;40108;53.152;5.844;2023-04-01T20:36:54;5.90;90.50
54202;DHT22;40108;53.152;5.844;2023-04-01T20:53:15;5.80;90.20
54202;DHT22;40108;53.152;5.844;2023-04-01T21:04:43;5.70;90.20
54202;DHT22;40108;53.152;5.844;2023-04-01T21:07:27;5.70;89.80
54202;DHT22;40108;53.152;5.844;2023-04-01T21:21:25;5.70;89.70
54202;DHT22;40108;53.152;5.844;2023-04-01T21:34:42;5.60;89.20
54202;DHT22;40108;53.152;5.844;2023-04-01T21:40:23;5.60;89.20
54202;DHT22;40108;53.152;5.844;2023-04-01T22:00:13;5.40;88.10
54202;DHT22;40108;53.152;5.844;2023-04-01T22:08:32;5.40;88.40
54202;DHT22;40108;53.152;5.844;2023-04-01T22:11:10;5.30;88.60
54202;DHT22;40108;53.152;5.844;2023-04-01T22:13:47;5.30;88.10
54202;DHT22;40108;53.152;5.844;2023-04-01T22:18:55;5.30;88.40
54202;DHT22;40108;53.152;5.844;2023-04-01T22:24:28;5.20;87.70
54202;DHT22;40108;53.152;5.844;2023-04-01T22:27:01;5.20;88.00
54202;DHT22;40108;53.152;5.844;2023-04-01T22:33:02;5.20;87.90
54202;DHT22;40108;53.152;5.844;2023-04-01T22:35:35;5.20;87.90
54202;DHT22;40108;53.152;5.844;2023-04-01T22:41:01;5.20;87.60
54202;DHT22;40108;53.152;5.844;2023-04-01T22:43:37;5.10;87.70
54202;DHT22;40108;53.152;5.844;2023-04-01T22:47:14;5.20;87.60
54202;DHT22;40108;53.152;5.844;2023-04-01T22:49:23;5.10;87.70
54202;DHT22;40108;53.152;5.844;2023-04-01T22:52:05;5.10;87.90
54202;DHT22;40108;53.152;5.844;2023-04-01T22:54:41;5.10;87.90
54202;DHT22;40108;53.152;5.844;2023-04-01T22:59:52;5.10;88.00
54202;DHT22;40108;53.152;5.844;2023-04-01T23:04:54;5.00;87.70
54202;DHT22;40108;53.152;5.844;2023-04-01T23:12:45;4.90;88.00
54202;DHT22;40108;53.152;5.844;2023-04-01T23:15:13;4.90;87.90
54202;DHT22;40108;53.152;5.844;2023-04-01T23:20:47;4.90;87.80
54202;DHT22;40108;53.152;5.844;2023-04-01T23:26:10;4.70;87.10
54202;DHT22;40108;53.152;5.844;2023-04-01T23:28:55;4.70;87.20
54202;DHT22;40108;53.152;5.844;2023-04-01T23:34:34;4.70;86.70
54202;DHT22;40108;53.152;5.844;2023-04-01T23:37:07;4.70;86.80
54202;DHT22;40108;53.152;5.844;2023-04-01T23:39:39;4.60;86.60
54202;DHT22;40108;53.152;5.844;2023-04-01T23:42:22;4.60;86.20
54202;DHT22;40108;53.152;5.844;2023-04-01T23:44:51;4.50;86.00
54202;DHT22;40108;53.152;5.844;2023-04-01T23:47:24;4.40;86.70
54202;DHT22;40108;53.152;5.844;2023-04-01T23:49:58;4.30;86.40
54202;DHT22;40108;53.152;5.844;2023-04-01T23:52:31;4.30;86.70
54202;DHT22;40108;53.152;5.844;2023-04-01T23:55:23;4.30;86.50
54202;DHT22;40108;53.152;5.844;2023-04-01T23:58:38;4.30;86.10
